sensor_id;sensor_type;location;lat;lon;timestamp;temperature;humidity
24384;DHT22;12504;52.870;8.798;2023-04-25T00:01:55;7.20;99.90
24384;DHT22;12504;52.870;8.798;2023-04-25T00:04:22;7.20;99.90
24384;DHT22;12504;52.870;8.798;2023-04-25T00:06:47;7.20;99.90
24384;DHT22;12504;52.870;8.798;2023-04-25T00:09:13;7.20;99.90
24384;DHT22;12504;52.870;8.798;2023-04-25T00:11:39;7.10;99.90
24384;DHT22;12504;52.870;8.798;2023-04-25T00:14:05;7.10;99.90
24384;DHT22;12504;52.870;8.798;2023-04-25T00:16:31;7.00;99.90
24384;DHT22;12504;52.870;8.798;2023-04-25T00:18:59;6.80;99.90
24384;DHT22;12504;52.870;8.798;2023-04-25T00:21:25;6.70;99.90
24384;DHT22;12504;52.870;8.798;2023-04-25T00:26:16;6.50;99.90
24384;DHT22;12504;52.870;8.798;2023-04-25T00:28:42;6.40;99.90
24384;DHT22;12504;52.870;8.798;2023-04-25T00:31:08;6.30;99.90
24384;DHT22;12504;52.870;8.798;2023-04-25T00:33:33;6.30;99.90
24384;DHT22;12504;52.870;8.798;2023-04-25T00:35:59;6.30;99.90
24384;DHT22;12504;52.870;8.798;2023-04-25T00:38:24;6.30;99.90
24384;DHT22;12504;52.870;8.798;2023-04-25T00:40:50;6.20;99.90
24384;DHT22;12504;52.870;8.798;2023-04-25T00:43:15;6.20;99.90
24384;DHT22;12504;52.870;8.798;2023-04-25T00:45:41;6.20;99.90
24384;DHT22;12504;52.870;8.798;2023-04-25T00:48:08;6.20;99.90
24384;DHT22;12504;52.870;8.798;2023-04-25T00:50:34;6.20;99.90
24384;DHT22;12504;52.870;8.798;2023-04-25T00:53:00;6.20;99.90
24384;DHT22;12504;52.870;8.798;2023-04-25T00:55:26;6.30;99.90
24384;DHT22;12504;52.870;8.798;2023-04-25T00:57:52;6.20;99.90
24384;DHT22;12504;52.870;8.798;2023-04-25T01:00:17;6.20;99.90
24384;DHT22;12504;52.870;8.798;2023-04-25T01:02:43;6.20;99.90
24384;DHT22;12504;52.870;8.798;2023-04-25T01:05:10;6.20;99.90
24384;DHT22;12504;52.870;8.798;2023-04-25T01:07:37;6.20;99.90
24384;DHT22;12504;52.870;8.798;2023-04-25T01:10:03;6.20;99.90
24384;DHT22;12504;52.870;8.798;2023-04-25T01:12:29;6.30;99.90
24384;DHT22;12504;52.870;8.798;2023-04-25T01:14:55;6.30;99.90
24384;DHT22;12504;52.870;8.798;2023-04-25T01:17:20;6.20;99.90
24384;DHT22;12504;52.870;8.798;2023-04-25T01:19:46;6.20;99.90
24384;DHT22;12504;52.870;8.798;2023-04-25T01:22:13;6.20;99.90
24384;DHT22;12504;52.870;8.798;2023-04-25T01:24:39;6.20;99.90
24384;DHT22;12504;52.870;8.798;2023-04-25T01:27:05;6.10;99.90
24384;DHT22;12504;52.870;8.798;2023-04-25T01:29:36;6.10;99.90
24384;DHT22;12504;52.870;8.798;2023-04-25T01:32:02;6.10;99.90
24384;DHT22;12504;52.870;8.798;2023-04-25T01:34:28;6.10;99.90
24384;DHT22;12504;52.870;8.798;2023-04-25T01:36:57;6.10;99.90
24384;DHT22;12504;52.870;8.798;2023-04-25T01:39:24;6.00;99.90
24384;DHT22;12504;52.870;8.798;2023-04-25T01:41:50;6.00;99.90
24384;DHT22;12504;52.870;8.798;2023-04-25T01:44:16;6.00;99.90
24384;DHT22;12504;52.870;8.798;2023-04-25T01:46:42;6.00;99.90
24384;DHT22;12504;52.870;8.798;2023-04-25T01:49:07;6.00;99.90
24384;DHT22;12504;52.870;8.798;2023-04-25T01:51:34;6.00;99.90
24384;DHT22;12504;52.870;8.798;2023-04-25T01:54:00;6.00;99.90
24384;DHT22;12504;52.870;8.798;2023-04-25T01:56:29;6.00;99.90
24384;DHT22;12504;52.870;8.798;2023-04-25T01:58:55;6.00;99.90
24384;DHT22;12504;52.870;8.798;2023-04-25T02:01:39;5.90;99.90
24384;DHT22;12504;52.870;8.798;2023-04-25T02:04:17;5.90;99.90
24384;DHT22;12504;52.870;8.798;2023-04-25T02:06:43;5.90;99.90
24384;DHT22;12504;52.870;8.798;2023-04-25T02:09:09;5.90;99.90
24384;DHT22;12504;52.870;8.798;2023-04-25T02:11:40;5.90;99.90
24384;DHT22;12504;52.870;8.798;2023-04-25T02:14:23;5.80;99.90
24384;DHT22;12504;52.870;8.798;2023-04-25T02:17:01;5.80;99.90
24384;DHT22;12504;52.870;8.798;2023-04-25T02:19:29;5.70;99.90
24384;DHT22;12504;52.870;8.798;2023-04-25T02:21:55;5.70;99.90
24384;DHT22;12504;52.870;8.798;2023-04-25T02:24:22;5.60;99.90
24384;DHT22;12504;52.870;8.798;2023-04-25T02:26:48;5.60;99.90
24384;DHT22;12504;52.870;8.798;2023-04-25T02:29:15;5.60;99.90
24384;DHT22;12504;52.870;8.798;2023-04-25T02:31:41;5.50;99.90
24384;DHT22;12504;52.870;8.798;2023-04-25T02:34:07;5.50;99.90
24384;DHT22;12504;52.870;8.798;2023-04-25T02:36:35;5.50;99.90
24384;DHT22;12504;52.870;8.798;2023-04-25T02:39:01;5.50;99.90
24384;DHT22;12504;52.870;8.798;2023-04-25T02:41:26;5.50;99.90
24384;DHT22;12504;52.870;8.798;2023-04-25T02:43:54;5.40;99.90
24384;DHT22;12504;52.870;8.798;2023-04-25T02:46:20;5.40;99.90
24384;DHT22;12504;52.870;8.798;2023-04-25T02:48:46;5.30;99.90
24384;DHT22;12504;52.870;8.798;2023-04-25T02:51:12;5.30;99.90
24384;DHT22;12504;52.870;8.798;2023-04-25T02:53:37;5.20;99.90
24384;DHT22;12504;52.870;8.798;2023-04-25T02:56:03;5.20;99.90
24384;DHT22;12504;52.870;8.798;2023-04-25T02:58:29;5.20;99.90
24384;DHT22;12504;52.870;8.798;2023-04-25T03:00:54;5.20;99.90
24384;DHT22;12504;52.870;8.798;2023-04-25T03:03:20;5.20;99.90
24384;DHT22;12504;52.870;8.798;2023-04-25T03:05:50;5.20;99.90
24384;DHT22;12504;52.870;8.798;2023-04-25T03:08:20;5.20;99.90
24384;DHT22;12504;52.870;8.798;2023-04-25T03:10:46;5.20;99.90
24384;DHT22;12504;52.870;8.798;2023-04-25T03:13:14;5.10;99.90
24384;DHT22;12504;52.870;8.798;2023-04-25T03:15:41;5.10;99.90
24384;DHT22;12504;52.870;8.798;2023-04-25T03:18:07;5.10;99.90
24384;DHT22;12504;52.870;8.798;2023-04-25T03:20:32;5.20;99.90
24384;DHT22;12504;52.870;8.798;2023-04-25T03:22:58;5.20;99.90
24384;DHT22;12504;52.870;8.798;2023-04-25T03:25:24;5.20;99.90
24384;DHT22;12504;52.870;8.798;2023-04-25T03:27:49;5.20;99.90
24384;DHT22;12504;52.870;8.798;2023-04-25T03:30:15;5.20;99.90
24384;DHT22;12504;52.870;8.798;2023-04-25T03:32:42;5.20;99.90
24384;DHT22;12504;52.870;8.798;2023-04-25T03:35:08;5.20;99.90
24384;DHT22;12504;52.870;8.798;2023-04-25T03:37:34;5.10;99.90
24384;DHT22;12504;52.870;8.798;2023-04-25T03:40:00;5.10;99.90
24384;DHT22;12504;52.870;8.798;2023-04-25T03:42:37;5.10;99.90
24384;DHT22;12504;52.870;8.798;2023-04-25T03:45:04;5.00;99.90
24384;DHT22;12504;52.870;8.798;2023-04-25T03:47:30;5.00;99.90
24384;DHT22;12504;52.870;8.798;2023-04-25T03:49:56;5.10;99.90
24384;DHT22;12504;52.870;8.798;2023-04-25T03:52:22;5.00;99.90
24384;DHT22;12504;52.870;8.798;2023-04-25T03:54:48;5.00;99.90
24384;DHT22;12504;52.870;8.798;2023-04-25T03:57:17;4.90;99.90
24384;DHT22;12504;52.870;8.798;2023-04-25T03:59:43;4.90;99.90
24384;DHT22;12504;52.870;8.798;2023-04-25T04:02:11;4.90;99.90
24384;DHT22;12504;52.870;8.798;2023-04-25T04:04:38;4.80;99.90
24384;DHT22;12504;52.870;8.798;2023-04-25T04:07:03;4.80;99.90
24384;DHT22;12504;52.870;8.798;2023-04-25T04:09:33;4.90;99.90
24384;DHT22;12504;52.870;8.798;2023-04-25T04:12:02;4.90;99.90
24384;DHT22;12504;52.870;8.798;2023-04-25T04:14:30;4.80;99.90
24384;DHT22;12504;52.870;8.798;2023-04-25T04:16:55;4.80;99.90
24384;DHT22;12504;52.870;8.798;2023-04-25T04:19:22;4.80;99.90
24384;DHT22;12504;52.870;8.798;2023-04-25T04:21:55;4.80;99.90
24384;DHT22;12504;52.870;8.798;2023-04-25T04:24:21;4.80;99.90
24384;DHT22;12504;52.870;8.798;2023-04-25T04:26:55;4.90;99.90
24384;DHT22;12504;52.870;8.798;2023-04-25T04:29:48;4.90;99.90
24384;DHT22;12504;52.870;8.798;2023-04-25T04:32:19;4.90;99.90
24384;DHT22;12504;52.870;8.798;2023-04-25T04:34:45;4.90;99.90
24384;DHT22;12504;52.870;8.798;2023-04-25T04:37:14;5.00;99.90
24384;DHT22;12504;52.870;8.798;2023-04-25T04:39:41;4.90;99.90
24384;DHT22;12504;52.870;8.798;2023-04-25T04:42:15;5.00;99.90
24384;DHT22;12504;52.870;8.798;2023-04-25T04:44:51;5.00;99.90
24384;DHT22;12504;52.870;8.798;2023-04-25T04:47:43;5.10;99.90
24384;DHT22;12504;52.870;8.798;2023-04-25T04:50:14;5.10;99.90
24384;DHT22;12504;52.870;8.798;2023-04-25T04:53:17;5.10;99.90
24384;DHT22;12504;52.870;8.798;2023-04-25T04:56:09;5.20;99.90
24384;DHT22;12504;52.870;8.798;2023-04-25T04:58:53;5.30;99.90
24384;DHT22;12504;52.870;8.798;2023-04-25T05:01:32;5.30;99.90
24384;DHT22;12504;52.870;8.798;2023-04-25T05:04:23;5.40;99.90
24384;DHT22;12504;52.870;8.798;2023-04-25T05:06:51;5.50;99.90
24384;DHT22;12504;52.870;8.798;2023-04-25T05:09:35;5.50;99.90
24384;DHT22;12504;52.870;8.798;2023-04-25T05:12:18;5.60;99.90
24384;DHT22;12504;52.870;8.798;2023-04-25T05:14:57;5.70;99.90
24384;DHT22;12504;52.870;8.798;2023-04-25T05:17:39;5.80;99.90
24384;DHT22;12504;52.870;8.798;2023-04-25T05:20:23;5.70;99.90
24384;DHT22;12504;52.870;8.798;2023-04-25T05:22:48;5.80;99.90
24384;DHT22;12504;52.870;8.798;2023-04-25T05:25:37;5.70;99.90
24384;DHT22;12504;52.870;8.798;2023-04-25T05:28:25;5.90;99.90
24384;DHT22;12504;52.870;8.798;2023-04-25T05:31:11;5.90;99.90
24384;DHT22;12504;52.870;8.798;2023-04-25T05:33:45;6.00;99.90
24384;DHT22;12504;52.870;8.798;2023-04-25T05:36:11;5.90;99.90
24384;DHT22;12504;52.870;8.798;2023-04-25T05:38:37;5.80;99.90
24384;DHT22;12504;52.870;8.798;2023-04-25T05:41:21;5.90;99.90
24384;DHT22;12504;52.870;8.798;2023-04-25T05:44:08;5.70;99.90
24384;DHT22;12504;52.870;8.798;2023-04-25T05:46:45;5.70;99.90
24384;DHT22;12504;52.870;8.798;2023-04-25T05:49:16;5.80;99.90
24384;DHT22;12504;52.870;8.798;2023-04-25T05:51:56;5.70;99.90
24384;DHT22;12504;52.870;8.798;2023-04-25T05:54:40;5.80;99.90
24384;DHT22;12504;52.870;8.798;2023-04-25T05:57:06;5.70;99.90
24384;DHT22;12504;52.870;8.798;2023-04-25T05:59:32;5.80;99.90
24384;DHT22;12504;52.870;8.798;2023-04-25T06:01:58;5.90;99.90
24384;DHT22;12504;52.870;8.798;2023-04-25T06:04:24;5.80;99.90
24384;DHT22;12504;52.870;8.798;2023-04-25T06:06:50;5.90;99.90
24384;DHT22;12504;52.870;8.798;2023-04-25T06:09:15;6.10;99.90
24384;DHT22;12504;52.870;8.798;2023-04-25T06:11:41;6.20;99.90
24384;DHT22;12504;52.870;8.798;2023-04-25T06:14:07;6.50;99.90
24384;DHT22;12504;52.870;8.798;2023-04-25T06:16:34;6.50;99.90
24384;DHT22;12504;52.870;8.798;2023-04-25T06:19:00;6.40;99.90
24384;DHT22;12504;52.870;8.798;2023-04-25T06:21:26;6.60;99.90
24384;DHT22;12504;52.870;8.798;2023-04-25T06:23:52;6.30;99.90
24384;DHT22;12504;52.870;8.798;2023-04-25T06:26:21;6.30;99.90
24384;DHT22;12504;52.870;8.798;2023-04-25T06:28:47;6.20;99.90
24384;DHT22;12504;52.870;8.798;2023-04-25T06:31:13;6.20;99.90
24384;DHT22;12504;52.870;8.798;2023-04-25T06:33:42;6.30;99.90
24384;DHT22;12504;52.870;8.798;2023-04-25T06:36:07;6.40;99.90
24384;DHT22;12504;52.870;8.798;2023-04-25T06:38:35;6.50;99.90
24384;DHT22;12504;52.870;8.798;2023-04-25T06:41:00;6.60;99.90
24384;DHT22;12504;52.870;8.798;2023-04-25T06:43:30;6.70;99.90
24384;DHT22;12504;52.870;8.798;2023-04-25T06:46:16;6.70;99.90
24384;DHT22;12504;52.870;8.798;2023-04-25T06:48:45;6.80;99.90
24384;DHT22;12504;52.870;8.798;2023-04-25T06:51:11;6.80;99.90
24384;DHT22;12504;52.870;8.798;2023-04-25T06:53:42;7.00;99.90
24384;DHT22;12504;52.870;8.798;2023-04-25T06:56:14;7.20;99.90
24384;DHT22;12504;52.870;8.798;2023-04-25T06:58:49;7.40;99.90
24384;DHT22;12504;52.870;8.798;2023-04-25T07:01:27;7.70;99.90
24384;DHT22;12504;52.870;8.798;2023-04-25T07:03:52;7.90;99.90
24384;DHT22;12504;52.870;8.798;2023-04-25T07:06:18;7.90;99.90
24384;DHT22;12504;52.870;8.798;2023-04-25T07:08:47;7.70;99.90
24384;DHT22;12504;52.870;8.798;2023-04-25T07:11:13;7.60;99.90
24384;DHT22;12504;52.870;8.798;2023-04-25T07:13:39;7.50;99.90
24384;DHT22;12504;52.870;8.798;2023-04-25T07:16:05;7.50;99.90
24384;DHT22;12504;52.870;8.798;2023-04-25T07:18:33;7.50;99.90
24384;DHT22;12504;52.870;8.798;2023-04-25T07:20:59;7.50;99.90
24384;DHT22;12504;52.870;8.798;2023-04-25T07:23:25;7.70;99.90
24384;DHT22;12504;52.870;8.798;2023-04-25T07:25:51;7.80;99.90
24384;DHT22;12504;52.870;8.798;2023-04-25T07:28:20;8.10;99.90
24384;DHT22;12504;52.870;8.798;2023-04-25T07:30:47;8.20;99.90
24384;DHT22;12504;52.870;8.798;2023-04-25T07:33:12;8.20;99.90
24384;DHT22;12504;52.870;8.798;2023-04-25T07:35:38;8.10;99.90
24384;DHT22;12504;52.870;8.798;2023-04-25T07:38:05;8.20;99.90
24384;DHT22;12504;52.870;8.798;2023-04-25T07:40:32;8.10;99.90
24384;DHT22;12504;52.870;8.798;2023-04-25T07:43:04;8.10;99.90
24384;DHT22;12504;52.870;8.798;2023-04-25T07:45:43;8.00;99.90
24384;DHT22;12504;52.870;8.798;2023-04-25T07:48:09;8.00;99.90
24384;DHT22;12504;52.870;8.798;2023-04-25T07:50:37;7.80;99.90
24384;DHT22;12504;52.870;8.798;2023-04-25T07:53:03;7.70;99.90
24384;DHT22;12504;52.870;8.798;2023-04-25T07:55:38;7.70;99.90
24384;DHT22;12504;52.870;8.798;2023-04-25T07:58:10;7.80;99.90
24384;DHT22;12504;52.870;8.798;2023-04-25T08:00:39;7.70;99.90
24384;DHT22;12504;52.870;8.798;2023-04-25T08:03:40;7.80;99.90
24384;DHT22;12504;52.870;8.798;2023-04-25T08:06:12;8.00;99.90
24384;DHT22;12504;52.870;8.798;2023-04-25T08:08:47;8.00;99.90
24384;DHT22;12504;52.870;8.798;2023-04-25T08:11:16;8.00;99.90
24384;DHT22;12504;52.870;8.798;2023-04-25T08:13:42;8.00;99.90
24384;DHT22;12504;52.870;8.798;2023-04-25T08:16:08;8.00;99.90
24384;DHT22;12504;52.870;8.798;2023-04-25T08:18:34;8.10;99.90
24384;DHT22;12504;52.870;8.798;2023-04-25T08:21:00;8.30;99.90
24384;DHT22;12504;52.870;8.798;2023-04-25T08:23:25;8.40;99.90
24384;DHT22;12504;52.870;8.798;2023-04-25T08:26:10;8.60;99.90
24384;DHT22;12504;52.870;8.798;2023-04-25T08:28:37;9.00;81.40
24384;DHT22;12504;52.870;8.798;2023-04-25T08:31:03;9.20;66.20
24384;DHT22;12504;52.870;8.798;2023-04-25T08:33:36;9.20;51.10
24384;DHT22;12504;52.870;8.798;2023-04-25T08:36:15;9.00;66.90
24384;DHT22;12504;52.870;8.798;2023-04-25T08:38:41;8.80;91.50
24384;DHT22;12504;52.870;8.798;2023-04-25T08:41:09;8.70;94.80
24384;DHT22;12504;52.870;8.798;2023-04-25T08:43:37;8.60;99.90
24384;DHT22;12504;52.870;8.798;2023-04-25T08:46:03;8.40;99.90
24384;DHT22;12504;52.870;8.798;2023-04-25T08:48:43;7.70;99.90
24384;DHT22;12504;52.870;8.798;2023-04-25T08:58:34;6.00;99.90
24384;DHT22;12504;52.870;8.798;2023-04-25T09:01:00;6.10;99.90
24384;DHT22;12504;52.870;8.798;2023-04-25T09:03:28;6.20;99.90
24384;DHT22;12504;52.870;8.798;2023-04-25T09:05:55;6.50;99.90
24384;DHT22;12504;52.870;8.798;2023-04-25T09:08:21;6.70;99.90
24384;DHT22;12504;52.870;8.798;2023-04-25T09:10:47;7.00;99.90
24384;DHT22;12504;52.870;8.798;2023-04-25T09:13:14;7.20;99.90
24384;DHT22;12504;52.870;8.798;2023-04-25T09:16:01;7.20;99.90
24384;DHT22;12504;52.870;8.798;2023-04-25T09:18:45;7.40;99.90
24384;DHT22;12504;52.870;8.798;2023-04-25T09:21:12;7.60;99.90
24384;DHT22;12504;52.870;8.798;2023-04-25T09:23:45;7.70;99.90
24384;DHT22;12504;52.870;8.798;2023-04-25T09:26:15;7.80;99.90
24384;DHT22;12504;52.870;8.798;2023-04-25T09:28:43;7.80;99.90
24384;DHT22;12504;52.870;8.798;2023-04-25T09:31:12;8.00;99.90
24384;DHT22;12504;52.870;8.798;2023-04-25T09:33:43;8.20;99.90
24384;DHT22;12504;52.870;8.798;2023-04-25T09:36:09;8.30;99.90
24384;DHT22;12504;52.870;8.798;2023-04-25T09:38:57;8.80;99.90
24384;DHT22;12504;52.870;8.798;2023-04-25T09:41:31;9.10;70.20
24384;DHT22;12504;52.870;8.798;2023-04-25T09:44:01;8.80;52.00
24384;DHT22;12504;52.870;8.798;2023-04-25T09:46:36;8.50;28.20
24384;DHT22;12504;52.870;8.798;2023-04-25T09:49:07;8.30;86.80
24384;DHT22;12504;52.870;8.798;2023-04-25T09:51:41;7.90;99.90
24384;DHT22;12504;52.870;8.798;2023-04-25T09:54:08;7.50;99.90
24384;DHT22;12504;52.870;8.798;2023-04-25T09:56:37;7.20;99.90
24384;DHT22;12504;52.870;8.798;2023-04-25T09:59:05;7.10;99.90
24384;DHT22;12504;52.870;8.798;2023-04-25T10:01:33;7.20;99.90
24384;DHT22;12504;52.870;8.798;2023-04-25T10:04:10;7.30;99.90
24384;DHT22;12504;52.870;8.798;2023-04-25T10:06:47;7.40;99.90
24384;DHT22;12504;52.870;8.798;2023-04-25T10:09:15;7.50;99.90
24384;DHT22;12504;52.870;8.798;2023-04-25T10:11:43;7.60;99.90
24384;DHT22;12504;52.870;8.798;2023-04-25T10:14:10;7.70;99.90
24384;DHT22;12504;52.870;8.798;2023-04-25T10:16:36;7.90;99.90
24384;DHT22;12504;52.870;8.798;2023-04-25T10:19:02;8.20;88.20
24384;DHT22;12504;52.870;8.798;2023-04-25T10:21:28;8.50;97.40
24384;DHT22;12504;52.870;8.798;2023-04-25T10:23:56;8.80;91.90
24384;DHT22;12504;52.870;8.798;2023-04-25T10:26:22;8.90;34.20
24384;DHT22;12504;52.870;8.798;2023-04-25T10:28:54;9.00;29.50
24384;DHT22;12504;52.870;8.798;2023-04-25T10:31:20;9.10;22.30
24384;DHT22;12504;52.870;8.798;2023-04-25T10:33:46;9.10;25.60
24384;DHT22;12504;52.870;8.798;2023-04-25T10:36:15;9.40;30.70
24384;DHT22;12504;52.870;8.798;2023-04-25T10:38:43;9.40;28.20
24384;DHT22;12504;52.870;8.798;2023-04-25T10:41:09;9.20;33.80
24384;DHT22;12504;52.870;8.798;2023-04-25T10:48:52;6.50;99.90
24384;DHT22;12504;52.870;8.798;2023-04-25T10:51:21;6.30;99.90
24384;DHT22;12504;52.870;8.798;2023-04-25T10:53:48;6.40;99.90
24384;DHT22;12504;52.870;8.798;2023-04-25T10:56:22;6.50;99.90
24384;DHT22;12504;52.870;8.798;2023-04-25T10:58:48;6.80;99.90
24384;DHT22;12504;52.870;8.798;2023-04-25T11:01:15;7.00;99.90
24384;DHT22;12504;52.870;8.798;2023-04-25T11:03:41;7.50;99.90
24384;DHT22;12504;52.870;8.798;2023-04-25T11:06:11;7.90;99.90
24384;DHT22;12504;52.870;8.798;2023-04-25T11:08:47;8.30;99.90
24384;DHT22;12504;52.870;8.798;2023-04-25T11:11:13;8.70;95.30
24384;DHT22;12504;52.870;8.798;2023-04-25T11:13:39;8.70;66.50
24384;DHT22;12504;52.870;8.798;2023-04-25T11:16:07;8.90;74.10
24384;DHT22;12504;52.870;8.798;2023-04-25T11:18:32;8.90;32.90
24384;DHT22;12504;52.870;8.798;2023-04-25T11:20:59;9.10;40.60
24384;DHT22;12504;52.870;8.798;2023-04-25T11:23:25;9.50;38.60
24384;DHT22;12504;52.870;8.798;2023-04-25T11:25:52;10.60;19.70
24384;DHT22;12504;52.870;8.798;2023-04-25T11:28:21;11.90;14.00
24384;DHT22;12504;52.870;8.798;2023-04-25T11:30:48;13.40;52.00
24384;DHT22;12504;52.870;8.798;2023-04-25T11:33:13;14.10;36.00
24384;DHT22;12504;52.870;8.798;2023-04-25T11:35:43;14.50;36.00
24384;DHT22;12504;52.870;8.798;2023-04-25T11:38:08;14.80;24.30
24384;DHT22;12504;52.870;8.798;2023-04-25T11:40:35;14.80;26.30
24384;DHT22;12504;52.870;8.798;2023-04-25T11:43:00;15.00;27.20
24384;DHT22;12504;52.870;8.798;2023-04-25T11:45:26;14.40;34.60
24384;DHT22;12504;52.870;8.798;2023-04-25T11:47:52;13.60;34.10
24384;DHT22;12504;52.870;8.798;2023-04-25T11:50:18;11.60;27.00
24384;DHT22;12504;52.870;8.798;2023-04-25T12:00:08;7.40;99.90
24384;DHT22;12504;52.870;8.798;2023-04-25T12:02:40;7.00;99.90
24384;DHT22;12504;52.870;8.798;2023-04-25T12:05:06;7.00;99.90
24384;DHT22;12504;52.870;8.798;2023-04-25T12:07:33;7.40;99.90
24384;DHT22;12504;52.870;8.798;2023-04-25T12:09:59;7.80;99.90
24384;DHT22;12504;52.870;8.798;2023-04-25T12:12:31;8.10;99.90
24384;DHT22;12504;52.870;8.798;2023-04-25T12:14:57;9.00;99.90
24384;DHT22;12504;52.870;8.798;2023-04-25T12:17:33;10.70;58.10
24384;DHT22;12504;52.870;8.798;2023-04-25T12:19:58;12.20;1.00
24384;DHT22;12504;52.870;8.798;2023-04-25T12:27:18;12.70;1.00
24384;DHT22;12504;52.870;8.798;2023-04-25T12:29:50;14.30;1.00
24384;DHT22;12504;52.870;8.798;2023-04-25T12:32:16;14.20;1.00
24384;DHT22;12504;52.870;8.798;2023-04-25T12:34:43;14.10;1.00
24384;DHT22;12504;52.870;8.798;2023-04-25T12:37:08;14.20;1.00
24384;DHT22;12504;52.870;8.798;2023-04-25T12:39:34;14.30;1.00
24384;DHT22;12504;52.870;8.798;2023-04-25T12:41:59;13.70;1.00
24384;DHT22;12504;52.870;8.798;2023-04-25T12:44:26;12.70;1.00
24384;DHT22;12504;52.870;8.798;2023-04-25T12:46:51;12.90;1.00
24384;DHT22;12504;52.870;8.798;2023-04-25T12:49:17;12.50;1.00
24384;DHT22;12504;52.870;8.798;2023-04-25T12:51:43;11.80;1.00
24384;DHT22;12504;52.870;8.798;2023-04-25T12:54:09;10.90;1.00
24384;DHT22;12504;52.870;8.798;2023-04-25T12:56:35;10.10;13.30
24384;DHT22;12504;52.870;8.798;2023-04-25T12:59:01;9.90;35.40
24384;DHT22;12504;52.870;8.798;2023-04-25T13:01:28;9.70;16.40
24384;DHT22;12504;52.870;8.798;2023-04-25T13:03:54;9.80;1.00
24384;DHT22;12504;52.870;8.798;2023-04-25T13:06:19;9.90;1.00
24384;DHT22;12504;52.870;8.798;2023-04-25T13:08:45;9.70;1.00
24384;DHT22;12504;52.870;8.798;2023-04-25T13:11:11;10.20;1.00
24384;DHT22;12504;52.870;8.798;2023-04-25T13:13:37;11.20;1.00
24384;DHT22;12504;52.870;8.798;2023-04-25T13:16:03;11.90;1.00
24384;DHT22;12504;52.870;8.798;2023-04-25T13:18:32;12.30;1.00
24384;DHT22;12504;52.870;8.798;2023-04-25T13:20:58;11.80;1.00
24384;DHT22;12504;52.870;8.798;2023-04-25T13:23:28;11.50;1.00
24384;DHT22;12504;52.870;8.798;2023-04-25T13:25:54;11.20;1.00
24384;DHT22;12504;52.870;8.798;2023-04-25T13:28:20;10.80;1.00
24384;DHT22;12504;52.870;8.798;2023-04-25T13:30:46;10.50;1.00
24384;DHT22;12504;52.870;8.798;2023-04-25T13:33:13;10.60;1.00
24384;DHT22;12504;52.870;8.798;2023-04-25T13:35:39;11.20;1.00
24384;DHT22;12504;52.870;8.798;2023-04-25T13:38:05;11.90;1.00
24384;DHT22;12504;52.870;8.798;2023-04-25T13:40:30;12.70;1.00
24384;DHT22;12504;52.870;8.798;2023-04-25T13:42:57;12.80;1.00
24384;DHT22;12504;52.870;8.798;2023-04-25T13:45:22;11.80;1.00
24384;DHT22;12504;52.870;8.798;2023-04-25T13:47:48;11.10;1.00
24384;DHT22;12504;52.870;8.798;2023-04-25T13:50:14;10.70;1.00
24384;DHT22;12504;52.870;8.798;2023-04-25T13:52:41;10.50;1.00
24384;DHT22;12504;52.870;8.798;2023-04-25T13:55:07;10.70;1.00
24384;DHT22;12504;52.870;8.798;2023-04-25T13:57:34;11.50;1.00
24384;DHT22;12504;52.870;8.798;2023-04-25T14:00:06;12.10;1.00
24384;DHT22;12504;52.870;8.798;2023-04-25T14:02:34;12.40;1.00
24384;DHT22;12504;52.870;8.798;2023-04-25T14:05:00;12.50;1.00
24384;DHT22;12504;52.870;8.798;2023-04-25T14:07:26;12.50;1.00
24384;DHT22;12504;52.870;8.798;2023-04-25T14:09:52;12.70;1.00
24384;DHT22;12504;52.870;8.798;2023-04-25T14:12:17;12.50;1.00
24384;DHT22;12504;52.870;8.798;2023-04-25T14:14:43;12.00;1.00
24384;DHT22;12504;52.870;8.798;2023-04-25T14:17:08;11.60;1.00
24384;DHT22;12504;52.870;8.798;2023-04-25T14:19:34;11.80;1.00
24384;DHT22;12504;52.870;8.798;2023-04-25T14:22:00;12.00;1.00
24384;DHT22;12504;52.870;8.798;2023-04-25T14:24:25;12.20;1.00
24384;DHT22;12504;52.870;8.798;2023-04-25T14:26:51;12.30;1.00
24384;DHT22;12504;52.870;8.798;2023-04-25T14:29:17;12.10;1.00
24384;DHT22;12504;52.870;8.798;2023-04-25T14:31:42;12.30;1.00
24384;DHT22;12504;52.870;8.798;2023-04-25T14:34:08;11.80;1.00
24384;DHT22;12504;52.870;8.798;2023-04-25T14:36:33;11.00;1.00
24384;DHT22;12504;52.870;8.798;2023-04-25T14:38:59;10.50;1.00
24384;DHT22;12504;52.870;8.798;2023-04-25T14:41:25;10.60;1.00
24384;DHT22;12504;52.870;8.798;2023-04-25T14:43:51;11.00;1.00
24384;DHT22;12504;52.870;8.798;2023-04-25T14:46:18;11.20;1.00
24384;DHT22;12504;52.870;8.798;2023-04-25T14:48:43;11.30;1.00
24384;DHT22;12504;52.870;8.798;2023-04-25T14:51:10;11.80;1.00
24384;DHT22;12504;52.870;8.798;2023-04-25T14:53:36;12.10;1.00
24384;DHT22;12504;52.870;8.798;2023-04-25T14:56:02;12.20;1.00
24384;DHT22;12504;52.870;8.798;2023-04-25T14:58:27;11.70;1.00
24384;DHT22;12504;52.870;8.798;2023-04-25T15:00:53;11.30;1.00
24384;DHT22;12504;52.870;8.798;2023-04-25T15:03:18;11.30;1.00
24384;DHT22;12504;52.870;8.798;2023-04-25T15:05:44;11.30;1.00
24384;DHT22;12504;52.870;8.798;2023-04-25T15:08:10;11.20;1.00
24384;DHT22;12504;52.870;8.798;2023-04-25T15:10:36;11.10;1.00
24384;DHT22;12504;52.870;8.798;2023-04-25T15:13:05;11.10;1.00
24384;DHT22;12504;52.870;8.798;2023-04-25T15:15:31;11.60;1.00
24384;DHT22;12504;52.870;8.798;2023-04-25T15:17:56;11.70;1.00
24384;DHT22;12504;52.870;8.798;2023-04-25T15:20:23;11.80;1.00
24384;DHT22;12504;52.870;8.798;2023-04-25T15:22:49;12.20;1.00
24384;DHT22;12504;52.870;8.798;2023-04-25T15:25:15;12.40;1.00
24384;DHT22;12504;52.870;8.798;2023-04-25T15:27:43;12.60;1.00
24384;DHT22;12504;52.870;8.798;2023-04-25T15:30:12;12.80;1.00
24384;DHT22;12504;52.870;8.798;2023-04-25T15:32:40;13.20;1.00
24384;DHT22;12504;52.870;8.798;2023-04-25T15:35:06;12.90;1.00
24384;DHT22;12504;52.870;8.798;2023-04-25T15:37:32;12.20;1.00
24384;DHT22;12504;52.870;8.798;2023-04-25T15:40:02;11.50;1.00
24384;DHT22;12504;52.870;8.798;2023-04-25T15:42:41;10.80;1.00
24384;DHT22;12504;52.870;8.798;2023-04-25T15:45:08;10.60;1.00
24384;DHT22;12504;52.870;8.798;2023-04-25T15:47:34;10.80;1.00
24384;DHT22;12504;52.870;8.798;2023-04-25T15:50:00;11.00;1.00
24384;DHT22;12504;52.870;8.798;2023-04-25T15:52:26;10.70;1.00
24384;DHT22;12504;52.870;8.798;2023-04-25T15:54:52;10.70;1.00
24384;DHT22;12504;52.870;8.798;2023-04-25T15:57:17;10.30;1.00
24384;DHT22;12504;52.870;8.798;2023-04-25T15:59:43;10.00;1.00
24384;DHT22;12504;52.870;8.798;2023-04-25T16:02:09;9.90;1.00
24384;DHT22;12504;52.870;8.798;2023-04-25T16:04:34;9.60;17.20
24384;DHT22;12504;52.870;8.798;2023-04-25T16:07:01;9.30;23.90
24384;DHT22;12504;52.870;8.798;2023-04-25T16:09:28;9.20;39.50
24384;DHT22;12504;52.870;8.798;2023-04-25T16:11:53;9.40;16.80
24384;DHT22;12504;52.870;8.798;2023-04-25T16:14:19;9.20;16.30
24384;DHT22;12504;52.870;8.798;2023-04-25T16:16:45;9.20;18.60
24384;DHT22;12504;52.870;8.798;2023-04-25T16:19:10;9.30;20.10
24384;DHT22;12504;52.870;8.798;2023-04-25T16:21:36;9.80;5.10